Airport Information

KFHR - Friday Harbor Airport

KFHR 160653Z AUTO 33004KT 10SM SCT120 06/01 A2980 RMK AO2 SLP090 T00560011


  • General Information

  • Coordinates: N 48°31'18"/ W 123°1'27"
  • Location: N/A
  • Surveyed Elevation: 113 MSL

Operations

Flow Name Active Runways Conditions

Green background denotes normal operations.


Common Frequencies

Callsign Frequency Position Name

More at the Document Center


Charts